sensor_id;sensor_type;location;lat;lon;timestamp;pressure;altitude;pressure_sealevel;temperature;humidity
40708;BME280;26392;42.696;23.350;2022-12-01T00:01:08;95564.25;;;5.68;100.00
40708;BME280;26392;42.696;23.350;2022-12-01T00:03:33;95556.81;;;5.64;100.00
40708;BME280;26392;42.696;23.350;2022-12-01T00:06:09;95553.88;;;5.65;100.00
40708;BME280;26392;42.696;23.350;2022-12-01T00:08:34;95565.31;;;5.67;100.00
40708;BME280;26392;42.696;23.350;2022-12-01T00:11:08;95568.22;;;5.66;100.00
40708;BME280;26392;42.696;23.350;2022-12-01T00:13:35;95561.34;;;5.70;100.00
40708;BME280;26392;42.696;23.350;2022-12-01T00:16:15;95567.00;;;5.61;100.00
40708;BME280;26392;42.696;23.350;2022-12-01T00:18:40;95560.41;;;5.57;100.00
40708;BME280;26392;42.696;23.350;2022-12-01T00:21:12;95567.22;;;5.60;100.00
40708;BME280;26392;42.696;23.350;2022-12-01T00:23:38;95558.09;;;5.54;100.00
40708;BME280;26392;42.696;23.350;2022-12-01T00:26:06;95563.13;;;5.51;100.00
40708;BME280;26392;42.696;23.350;2022-12-01T00:28:31;95566.50;;;5.46;100.00
40708;BME280;26392;42.696;23.350;2022-12-01T00:30:57;95565.75;;;5.32;100.00
40708;BME280;26392;42.696;23.350;2022-12-01T00:33:23;95562.63;;;5.29;100.00
40708;BME280;26392;42.696;23.350;2022-12-01T00:35:48;95569.50;;;5.25;100.00
40708;BME280;26392;42.696;23.350;2022-12-01T00:38:13;95563.91;;;5.20;100.00
40708;BME280;26392;42.696;23.350;2022-12-01T00:40:39;95560.59;;;5.18;100.00
40708;BME280;26392;42.696;23.350;2022-12-01T00:43:04;95559.56;;;5.19;100.00
40708;BME280;26392;42.696;23.350;2022-12-01T00:45:29;95565.78;;;5.19;100.00
40708;BME280;26392;42.696;23.350;2022-12-01T00:47:55;95557.50;;;5.14;100.00
40708;BME280;26392;42.696;23.350;2022-12-01T00:50:20;95556.69;;;5.07;100.00
40708;BME280;26392;42.696;23.350;2022-12-01T00:52:45;95547.94;;;5.11;100.00
40708;BME280;26392;42.696;23.350;2022-12-01T00:55:11;95547.19;;;5.04;100.00
40708;BME280;26392;42.696;23.350;2022-12-01T00:57:36;95553.41;;;4.98;100.00
40708;BME280;26392;42.696;23.350;2022-12-01T01:00:03;95550.28;;;5.01;100.00
40708;BME280;26392;42.696;23.350;2022-12-01T01:02:30;95545.50;;;5.03;100.00
40708;BME280;26392;42.696;23.350;2022-12-01T01:04:55;95556.06;;;5.11;100.00
40708;BME280;26392;42.696;23.350;2022-12-01T01:07:21;95553.09;;;5.20;100.00
40708;BME280;26392;42.696;23.350;2022-12-01T01:09:46;95547.53;;;5.14;100.00
40708;BME280;26392;42.696;23.350;2022-12-01T01:12:11;95556.19;;;5.23;100.00
40708;BME280;26392;42.696;23.350;2022-12-01T01:14:37;95547.50;;;5.21;100.00
40708;BME280;26392;42.696;23.350;2022-12-01T01:17:02;95545.41;;;5.23;100.00
40708;BME280;26392;42.696;23.350;2022-12-01T01:19:27;95536.28;;;5.18;100.00
40708;BME280;26392;42.696;23.350;2022-12-01T01:21:53;95542.09;;;5.21;100.00
40708;BME280;26392;42.696;23.350;2022-12-01T01:24:18;95543.75;;;5.22;100.00
40708;BME280;26392;42.696;23.350;2022-12-01T01:26:44;95552.25;;;5.26;100.00
40708;BME280;26392;42.696;23.350;2022-12-01T01:29:09;95546.63;;;5.27;100.00
40708;BME280;26392;42.696;23.350;2022-12-01T01:31:35;95541.88;;;5.23;100.00
40708;BME280;26392;42.696;23.350;2022-12-01T01:34:00;95539.16;;;5.23;100.00
40708;BME280;26392;42.696;23.350;2022-12-01T01:36:26;95541.25;;;5.21;100.00
40708;BME280;26392;42.696;23.350;2022-12-01T01:38:52;95529.59;;;5.27;100.00
40708;BME280;26392;42.696;23.350;2022-12-01T01:41:19;95532.13;;;5.22;100.00
40708;BME280;26392;42.696;23.350;2022-12-01T01:46:28;95523.75;;;5.30;100.00
40708;BME280;26392;42.696;23.350;2022-12-01T01:48:58;95517.09;;;5.32;100.00
40708;BME280;26392;42.696;23.350;2022-12-01T01:51:28;95517.75;;;5.28;100.00
40708;BME280;26392;42.696;23.350;2022-12-01T01:53:58;95520.91;;;5.18;100.00
40708;BME280;26392;42.696;23.350;2022-12-01T01:56:25;95516.69;;;5.29;100.00
40708;BME280;26392;42.696;23.350;2022-12-01T01:58:51;95512.97;;;5.30;100.00
40708;BME280;26392;42.696;23.350;2022-12-01T02:01:17;95512.53;;;5.33;100.00
40708;BME280;26392;42.696;23.350;2022-12-01T02:03:42;95512.91;;;5.36;100.00
40708;BME280;26392;42.696;23.350;2022-12-01T02:06:09;95517.50;;;5.36;100.00
40708;BME280;26392;42.696;23.350;2022-12-01T02:08:36;95508.59;;;5.29;100.00
40708;BME280;26392;42.696;23.350;2022-12-01T02:14:36;95502.00;;;5.18;100.00
40708;BME280;26392;42.696;23.350;2022-12-01T02:26:43;95507.31;;;5.00;100.00
40708;BME280;26392;42.696;23.350;2022-12-01T02:38:18;95505.03;;;4.97;100.00
40708;BME280;26392;42.696;23.350;2022-12-01T02:41:10;95499.06;;;4.88;100.00
40708;BME280;26392;42.696;23.350;2022-12-01T02:43:44;95506.09;;;4.89;100.00
40708;BME280;26392;42.696;23.350;2022-12-01T02:48:58;95498.47;;;4.72;100.00
40708;BME280;26392;42.696;23.350;2022-12-01T02:51:30;95505.94;;;4.77;100.00
40708;BME280;26392;42.696;23.350;2022-12-01T02:53:57;95501.59;;;4.76;100.00
40708;BME280;26392;42.696;23.350;2022-12-01T02:56:24;95505.31;;;4.82;100.00
40708;BME280;26392;42.696;23.350;2022-12-01T02:58:50;95494.53;;;4.82;100.00
40708;BME280;26392;42.696;23.350;2022-12-01T03:09:28;95501.66;;;5.01;100.00
40708;BME280;26392;42.696;23.350;2022-12-01T03:17:27;95494.81;;;5.05;100.00
40708;BME280;26392;42.696;23.350;2022-12-01T03:20:05;95496.69;;;4.98;100.00
40708;BME280;26392;42.696;23.350;2022-12-01T03:22:40;95503.13;;;5.04;100.00
40708;BME280;26392;42.696;23.350;2022-12-01T03:25:07;95502.28;;;5.03;100.00
40708;BME280;26392;42.696;23.350;2022-12-01T03:27:36;95497.28;;;5.07;100.00
40708;BME280;26392;42.696;23.350;2022-12-01T03:30:03;95499.78;;;5.08;100.00
40708;BME280;26392;42.696;23.350;2022-12-01T03:32:47;95499.38;;;5.05;100.00
40708;BME280;26392;42.696;23.350;2022-12-01T03:35:33;95503.16;;;4.97;100.00
40708;BME280;26392;42.696;23.350;2022-12-01T03:38:20;95498.63;;;4.84;100.00
40708;BME280;26392;42.696;23.350;2022-12-01T03:40:50;95501.13;;;4.86;100.00
40708;BME280;26392;42.696;23.350;2022-12-01T03:43:25;95493.22;;;4.84;100.00
40708;BME280;26392;42.696;23.350;2022-12-01T03:48:32;95494.81;;;4.60;100.00
40708;BME280;26392;42.696;23.350;2022-12-01T03:56:54;95496.31;;;4.36;100.00
40708;BME280;26392;42.696;23.350;2022-12-01T03:59:21;95498.63;;;4.33;100.00
40708;BME280;26392;42.696;23.350;2022-12-01T04:01:48;95499.03;;;4.43;100.00
40708;BME280;26392;42.696;23.350;2022-12-01T04:04:14;95494.09;;;4.26;100.00
40708;BME280;26392;42.696;23.350;2022-12-01T04:06:42;95502.59;;;4.23;100.00
40708;BME280;26392;42.696;23.350;2022-12-01T04:09:08;95498.81;;;4.31;100.00
40708;BME280;26392;42.696;23.350;2022-12-01T04:11:34;95502.97;;;4.34;100.00
40708;BME280;26392;42.696;23.350;2022-12-01T04:14:18;95499.22;;;4.41;100.00
40708;BME280;26392;42.696;23.350;2022-12-01T04:16:43;95501.53;;;4.38;100.00
40708;BME280;26392;42.696;23.350;2022-12-01T04:19:09;95502.97;;;4.40;100.00
40708;BME280;26392;42.696;23.350;2022-12-01T04:21:35;95504.22;;;4.38;100.00
40708;BME280;26392;42.696;23.350;2022-12-01T04:24:00;95503.16;;;4.39;100.00
40708;BME280;26392;42.696;23.350;2022-12-01T04:26:32;95510.84;;;4.42;100.00
40708;BME280;26392;42.696;23.350;2022-12-01T04:29:03;95504.47;;;4.23;100.00
40708;BME280;26392;42.696;23.350;2022-12-01T04:31:28;95505.91;;;4.19;100.00
40708;BME280;26392;42.696;23.350;2022-12-01T04:33:55;95506.31;;;4.22;100.00
40708;BME280;26392;42.696;23.350;2022-12-01T04:36:21;95511.91;;;4.28;100.00
40708;BME280;26392;42.696;23.350;2022-12-01T04:38:47;95519.19;;;4.27;100.00
40708;BME280;26392;42.696;23.350;2022-12-01T04:41:13;95519.81;;;4.29;100.00
40708;BME280;26392;42.696;23.350;2022-12-01T04:43:39;95516.09;;;4.23;100.00
40708;BME280;26392;42.696;23.350;2022-12-01T04:46:05;95517.09;;;4.22;100.00
40708;BME280;26392;42.696;23.350;2022-12-01T04:48:31;95518.34;;;4.26;100.00
40708;BME280;26392;42.696;23.350;2022-12-01T04:50:57;95518.34;;;4.26;100.00
40708;BME280;26392;42.696;23.350;2022-12-01T04:53:23;95524.56;;;4.27;100.00
40708;BME280;26392;42.696;23.350;2022-12-01T04:55:48;95523.97;;;4.18;100.00
40708;BME280;26392;42.696;23.350;2022-12-01T04:58:14;95525.47;;;3.88;100.00
40708;BME280;26392;42.696;23.350;2022-12-01T05:00:39;95526.69;;;3.98;100.00
40708;BME280;26392;42.696;23.350;2022-12-01T05:03:05;95513.81;;;4.00;100.00
40708;BME280;26392;42.696;23.350;2022-12-01T05:05:30;95521.91;;;4.14;100.00
40708;BME280;26392;42.696;23.350;2022-12-01T05:07:59;95529.75;;;4.22;100.00
40708;BME280;26392;42.696;23.350;2022-12-01T05:10:24;95523.97;;;4.18;100.00
40708;BME280;26392;42.696;23.350;2022-12-01T05:12:50;95516.28;;;4.09;100.00
40708;BME280;26392;42.696;23.350;2022-12-01T05:15:16;95527.50;;;4.06;100.00
40708;BME280;26392;42.696;23.350;2022-12-01T05:17:41;95528.34;;;4.13;100.00
40708;BME280;26392;42.696;23.350;2022-12-01T05:20:07;95511.97;;;3.88;100.00
40708;BME280;26392;42.696;23.350;2022-12-01T05:22:57;95523.19;;;3.85;100.00
40708;BME280;26392;42.696;23.350;2022-12-01T05:25:23;95530.00;;;3.94;100.00
40708;BME280;26392;42.696;23.350;2022-12-01T05:27:48;95536.44;;;3.99;100.00
40708;BME280;26392;42.696;23.350;2022-12-01T05:30:14;95531.25;;;4.04;100.00
40708;BME280;26392;42.696;23.350;2022-12-01T05:32:39;95535.63;;;3.92;100.00
40708;BME280;26392;42.696;23.350;2022-12-01T05:35:05;95530.00;;;3.94;100.00
40708;BME280;26392;42.696;23.350;2022-12-01T05:37:30;95539.56;;;3.96;100.00
40708;BME280;26392;42.696;23.350;2022-12-01T05:39:58;95531.66;;;3.95;100.00
40708;BME280;26392;42.696;23.350;2022-12-01T05:42:24;95536.44;;;3.99;100.00
40708;BME280;26392;42.696;23.350;2022-12-01T05:44:49;95538.06;;;4.00;100.00
40708;BME280;26392;42.696;23.350;2022-12-01T05:47:15;95537.88;;;4.09;100.00
40708;BME280;26392;42.696;23.350;2022-12-01T05:49:40;95528.75;;;4.10;100.00
40708;BME280;26392;42.696;23.350;2022-12-01T05:52:05;95534.97;;;4.10;100.00
40708;BME280;26392;42.696;23.350;2022-12-01T05:54:31;95534.16;;;4.23;100.00
40708;BME280;26392;42.696;23.350;2022-12-01T05:56:56;95542.22;;;4.23;100.00
40708;BME280;26392;42.696;23.350;2022-12-01T05:59:21;95544.31;;;4.21;100.00
40708;BME280;26392;42.696;23.350;2022-12-01T06:01:47;95523.56;;;4.15;100.00
40708;BME280;26392;42.696;23.350;2022-12-01T06:04:12;95543.66;;;4.25;100.00
40708;BME280;26392;42.696;23.350;2022-12-01T06:06:38;95539.50;;;4.30;100.00
40708;BME280;26392;42.696;23.350;2022-12-01T06:09:03;95539.72;;;4.28;100.00
40708;BME280;26392;42.696;23.350;2022-12-01T06:11:28;95540.31;;;4.37;100.00
40708;BME280;26392;42.696;23.350;2022-12-01T06:13:54;95536.16;;;4.41;100.00
40708;BME280;26392;42.696;23.350;2022-12-01T06:16:19;95523.31;;;4.30;100.00
40708;BME280;26392;42.696;23.350;2022-12-01T06:18:44;95542.22;;;4.16;100.00
40708;BME280;26392;42.696;23.350;2022-12-01T06:21:10;95536.25;;;4.01;100.00
40708;BME280;26392;42.696;23.350;2022-12-01T06:23:35;95539.53;;;3.83;100.00
40708;BME280;26392;42.696;23.350;2022-12-01T06:26:00;95535.81;;;3.91;100.00
40708;BME280;26392;42.696;23.350;2022-12-01T06:28:26;95535.59;;;3.86;100.00
40708;BME280;26392;42.696;23.350;2022-12-01T06:30:51;95531.25;;;3.85;100.00
40708;BME280;26392;42.696;23.350;2022-12-01T06:33:17;95529.19;;;3.93;100.00
40708;BME280;26392;42.696;23.350;2022-12-01T06:35:42;95526.47;;;4.00;100.00
40708;BME280;26392;42.696;23.350;2022-12-01T06:38:07;95529.81;;;4.02;100.00
40708;BME280;26392;42.696;23.350;2022-12-01T06:40:33;95523.56;;;4.21;100.00
40708;BME280;26392;42.696;23.350;2022-12-01T06:42:59;95527.25;;;4.34;100.00
40708;BME280;26392;42.696;23.350;2022-12-01T06:45:28;95526.22;;;4.35;100.00
40708;BME280;26392;42.696;23.350;2022-12-01T06:47:55;95526.03;;;4.30;100.00
40708;BME280;26392;42.696;23.350;2022-12-01T06:50:20;95529.97;;;4.14;100.00
40708;BME280;26392;42.696;23.350;2022-12-01T06:52:46;95529.38;;;4.18;100.00
40708;BME280;26392;42.696;23.350;2022-12-01T06:55:12;95519.66;;;4.04;100.00
40708;BME280;26392;42.696;23.350;2022-12-01T06:57:37;95518.34;;;4.20;100.00
40708;BME280;26392;42.696;23.350;2022-12-01T07:00:03;95518.16;;;4.21;100.00
40708;BME280;26392;42.696;23.350;2022-12-01T07:02:29;95534.75;;;4.32;100.00
40708;BME280;26392;42.696;23.350;2022-12-01T07:04:54;95536.38;;;4.46;100.00
40708;BME280;26392;42.696;23.350;2022-12-01T07:07:19;95529.06;;;4.53;100.00
40708;BME280;26392;42.696;23.350;2022-12-01T07:09:45;95534.03;;;4.63;100.00
40708;BME280;26392;42.696;23.350;2022-12-01T07:12:10;95526.31;;;4.73;100.00
40708;BME280;26392;42.696;23.350;2022-12-01T07:14:36;95538.97;;;4.79;100.00
40708;BME280;26392;42.696;23.350;2022-12-01T07:17:02;95540.22;;;4.77;100.00
40708;BME280;26392;42.696;23.350;2022-12-01T07:19:28;95529.25;;;4.58;100.00
40708;BME280;26392;42.696;23.350;2022-12-01T07:21:53;95546.28;;;4.59;100.00
40708;BME280;26392;42.696;23.350;2022-12-01T07:24:18;95542.56;;;4.60;100.00
40708;BME280;26392;42.696;23.350;2022-12-01T07:26:45;95547.38;;;4.51;100.00
40708;BME280;26392;42.696;23.350;2022-12-01T07:29:11;95537.16;;;4.53;100.00
40708;BME280;26392;42.696;23.350;2022-12-01T07:31:37;95545.25;;;4.60;100.00
40708;BME280;26392;42.696;23.350;2022-12-01T07:34:03;95542.56;;;4.60;100.00
40708;BME280;26392;42.696;23.350;2022-12-01T07:36:29;95540.31;;;4.43;100.00
40708;BME280;26392;42.696;23.350;2022-12-01T07:38:55;95547.75;;;4.48;100.00
40708;BME280;26392;42.696;23.350;2022-12-01T07:41:20;95536.97;;;4.48;100.00
40708;BME280;26392;42.696;23.350;2022-12-01T07:43:46;95543.84;;;4.44;100.00
40708;BME280;26392;42.696;23.350;2022-12-01T07:46:14;95539.50;;;4.43;100.00
40708;BME280;26392;42.696;23.350;2022-12-01T07:48:40;95546.09;;;4.54;100.00
40708;BME280;26392;42.696;23.350;2022-12-01T07:51:09;95544.84;;;4.56;100.00
40708;BME280;26392;42.696;23.350;2022-12-01T07:53:35;95542.34;;;4.61;100.00
40708;BME280;26392;42.696;23.350;2022-12-01T07:56:01;95534.47;;;4.60;100.00
40708;BME280;26392;42.696;23.350;2022-12-01T07:58:26;95547.69;;;4.75;100.00
40708;BME280;26392;42.696;23.350;2022-12-01T08:00:52;95547.22;;;4.84;100.00
40708;BME280;26392;42.696;23.350;2022-12-01T08:03:18;95547.66;;;4.88;100.00
40708;BME280;26392;42.696;23.350;2022-12-01T08:05:44;95542.69;;;4.85;100.00
40708;BME280;26392;42.696;23.350;2022-12-01T08:08:09;95543.31;;;4.80;100.00
40708;BME280;26392;42.696;23.350;2022-12-01T08:10:35;95537.91;;;4.80;100.00
40708;BME280;26392;42.696;23.350;2022-12-01T08:13:01;95551.22;;;4.82;100.00
40708;BME280;26392;42.696;23.350;2022-12-01T08:15:26;95552.00;;;4.89;100.00
40708;BME280;26392;42.696;23.350;2022-12-01T08:17:52;95537.53;;;4.77;100.00
40708;BME280;26392;42.696;23.350;2022-12-01T08:20:17;95540.22;;;4.70;100.00
40708;BME280;26392;42.696;23.350;2022-12-01T08:22:43;95546.22;;;4.79;100.00
40708;BME280;26392;42.696;23.350;2022-12-01T08:25:08;95542.28;;;4.75;100.00
40708;BME280;26392;42.696;23.350;2022-12-01T08:27:34;95554.53;;;4.77;100.00
40708;BME280;26392;42.696;23.350;2022-12-01T08:30:00;95551.03;;;4.70;100.00
40708;BME280;26392;42.696;23.350;2022-12-01T08:32:25;95555.16;;;4.72;100.00
40708;BME280;26392;42.696;23.350;2022-12-01T08:34:51;95548.53;;;4.75;100.00
40708;BME280;26392;42.696;23.350;2022-12-01T08:37:16;95555.16;;;4.72;100.00
40708;BME280;26392;42.696;23.350;2022-12-01T08:39:41;95553.91;;;4.75;100.00
40708;BME280;26392;42.696;23.350;2022-12-01T08:42:07;95556.63;;;4.75;100.00
40708;BME280;26392;42.696;23.350;2022-12-01T08:44:32;95550.59;;;4.73;100.00
40708;BME280;26392;42.696;23.350;2022-12-01T08:46:58;95549.19;;;4.70;100.00
40708;BME280;26392;42.696;23.350;2022-12-01T08:49:23;95550.00;;;4.71;100.00
40708;BME280;26392;42.696;23.350;2022-12-01T08:51:49;95544.59;;;4.71;100.00
40708;BME280;26392;42.696;23.350;2022-12-01T08:54:14;95548.13;;;4.71;100.00
40708;BME280;26392;42.696;23.350;2022-12-01T08:56:42;95547.91;;;4.80;100.00
40708;BME280;26392;42.696;23.350;2022-12-01T08:59:08;95544.75;;;4.83;100.00
40708;BME280;26392;42.696;23.350;2022-12-01T09:01:35;95536.41;;;4.91;100.00
40708;BME280;26392;42.696;23.350;2022-12-01T09:04:16;95540.56;;;4.93;100.00
40708;BME280;26392;42.696;23.350;2022-12-01T09:06:44;95538.84;;;5.06;100.00
40708;BME280;26392;42.696;23.350;2022-12-01T09:09:12;95528.47;;;5.03;100.00
40708;BME280;26392;42.696;23.350;2022-12-01T09:11:38;95540.91;;;5.04;100.00
40708;BME280;26392;42.696;23.350;2022-12-01T09:14:05;95525.13;;;5.07;100.00
40708;BME280;26392;42.696;23.350;2022-12-01T09:16:30;95521.00;;;5.05;100.00
40708;BME280;26392;42.696;23.350;2022-12-01T09:18:56;95526.97;;;5.13;100.00
40708;BME280;26392;42.696;23.350;2022-12-01T09:21:24;95518.06;;;5.06;100.00
40708;BME280;26392;42.696;23.350;2022-12-01T09:23:50;95521.81;;;5.05;100.00
40708;BME280;26392;42.696;23.350;2022-12-01T09:26:17;95517.88;;;5.01;100.00
40708;BME280;26392;42.696;23.350;2022-12-01T09:28:47;95513.47;;;5.13;100.00
40708;BME280;26392;42.696;23.350;2022-12-01T09:31:14;95519.81;;;5.32;100.00
40708;BME280;26392;42.696;23.350;2022-12-01T09:33:41;95515.16;;;5.39;100.00
40708;BME280;26392;42.696;23.350;2022-12-01T09:36:07;95517.72;;;5.59;100.00
40708;BME280;26392;42.696;23.350;2022-12-01T09:38:34;95510.25;;;5.61;100.00
40708;BME280;26392;42.696;23.350;2022-12-01T09:41:03;95501.88;;;5.70;100.00
40708;BME280;26392;42.696;23.350;2022-12-01T09:43:39;95514.94;;;5.73;100.00
40708;BME280;26392;42.696;23.350;2022-12-01T09:46:10;95515.03;;;5.84;100.00
40708;BME280;26392;42.696;23.350;2022-12-01T09:48:42;95504.19;;;5.91;100.00
40708;BME280;26392;42.696;23.350;2022-12-01T09:51:26;95496.72;;;5.87;100.00
40708;BME280;26392;42.696;23.350;2022-12-01T09:53:59;95496.72;;;5.87;100.00
40708;BME280;26392;42.696;23.350;2022-12-01T09:56:28;95494.19;;;5.92;100.00
40708;BME280;26392;42.696;23.350;2022-12-01T09:58:56;95491.81;;;6.02;100.00
40708;BME280;26392;42.696;23.350;2022-12-01T10:01:42;95492.28;;;5.99;100.00
40708;BME280;26392;42.696;23.350;2022-12-01T10:04:19;95482.91;;;6.01;100.00
40708;BME280;26392;42.696;23.350;2022-12-01T10:06:58;95478.19;;;5.90;100.00
40708;BME280;26392;42.696;23.350;2022-12-01T10:09:48;95478.97;;;5.72;100.00
40708;BME280;26392;42.696;23.350;2022-12-01T10:12:18;95489.06;;;5.58;100.00
40708;BME280;26392;42.696;23.350;2022-12-01T10:14:46;95486.88;;;5.10;100.00
40708;BME280;26392;42.696;23.350;2022-12-01T10:17:23;95488.66;;;5.23;100.00
40708;BME280;26392;42.696;23.350;2022-12-01T10:25:21;95483.56;;;5.08;100.00
40708;BME280;26392;42.696;23.350;2022-12-01T10:28:03;95477.78;;;5.05;100.00
40708;BME280;26392;42.696;23.350;2022-12-01T10:30:33;95473.78;;;5.14;100.00
40708;BME280;26392;42.696;23.350;2022-12-01T10:33:12;95476.00;;;5.24;100.00
40708;BME280;26392;42.696;23.350;2022-12-01T10:35:41;95475.34;;;4.97;100.00
40708;BME280;26392;42.696;23.350;2022-12-01T10:38:19;95479.56;;;5.18;100.00
40708;BME280;26392;42.696;23.350;2022-12-01T10:40:45;95485.50;;;5.33;100.00
40708;BME280;26392;42.696;23.350;2022-12-01T10:43:11;95477.13;;;5.41;100.00
40708;BME280;26392;42.696;23.350;2022-12-01T10:45:40;95478.16;;;5.40;100.00
40708;BME280;26392;42.696;23.350;2022-12-01T10:48:12;95468.59;;;5.44;100.00
40708;BME280;26392;42.696;23.350;2022-12-01T10:50:44;95469.47;;;5.38;100.00
40708;BME280;26392;42.696;23.350;2022-12-01T10:58:22;95467.91;;;5.49;100.00
40708;BME280;26392;42.696;23.350;2022-12-01T11:00:59;95463.66;;;5.34;100.00
40708;BME280;26392;42.696;23.350;2022-12-01T11:03:29;95467.84;;;5.30;100.00
40708;BME280;26392;42.696;23.350;2022-12-01T11:05:57;95466.59;;;5.33;100.00
40708;BME280;26392;42.696;23.350;2022-12-01T11:08:42;95470.31;;;5.32;100.00
40708;BME280;26392;42.696;23.350;2022-12-01T11:11:33;95465.88;;;5.44;100.00
40708;BME280;26392;42.696;23.350;2022-12-01T11:14:22;95461.88;;;5.22;100.00
40708;BME280;26392;42.696;23.350;2022-12-01T11:16:49;95465.50;;;5.09;100.00
40708;BME280;26392;42.696;23.350;2022-12-01T11:19:27;95458.38;;;5.14;100.00
40708;BME280;26392;42.696;23.350;2022-12-01T11:21:56;95465.66;;;5.14;100.00
40708;BME280;26392;42.696;23.350;2022-12-01T11:24:27;95457.81;;;5.06;100.00
40708;BME280;26392;42.696;23.350;2022-12-01T11:26:55;95462.03;;;4.95;100.00
40708;BME280;26392;42.696;23.350;2022-12-01T11:29:36;95463.34;;;4.86;100.00
40708;BME280;26392;42.696;23.350;2022-12-01T11:34:48;95462.13;;;4.75;100.00
40708;BME280;26392;42.696;23.350;2022-12-01T11:37:16;95452.16;;;4.76;100.00
40708;BME280;26392;42.696;23.350;2022-12-01T11:39:43;95459.84;;;4.79;100.00
40708;BME280;26392;42.696;23.350;2022-12-01T11:44:38;95467.59;;;4.68;100.00
40708;BME280;26392;42.696;23.350;2022-12-01T11:47:25;95451.25;;;4.50;100.00
40708;BME280;26392;42.696;23.350;2022-12-01T11:49:54;95450.16;;;4.64;100.00
40708;BME280;26392;42.696;23.350;2022-12-01T11:52:34;95456.34;;;4.71;100.00
40708;BME280;26392;42.696;23.350;2022-12-01T11:57:42;95455.78;;;4.63;100.00
40708;BME280;26392;42.696;23.350;2022-12-01T12:00:19;95452.00;;;4.70;100.00
40708;BME280;26392;42.696;23.350;2022-12-01T12:14:32;95458.94;;;4.46;100.00
40708;BME280;26392;42.696;23.350;2022-12-01T12:17:25;95458.16;;;4.33;100.00
40708;BME280;26392;42.696;23.350;2022-12-01T12:29:15;95465.63;;;4.31;100.00
40708;BME280;26392;42.696;23.350;2022-12-01T12:38:06;95460.97;;;3.86;100.00
40708;BME280;26392;42.696;23.350;2022-12-01T12:45:55;95464.88;;;3.97;100.00
40708;BME280;26392;42.696;23.350;2022-12-01T12:51:15;95460.75;;;3.88;100.00
40708;BME280;26392;42.696;23.350;2022-12-01T12:56:50;95471.16;;;3.64;100.00
40708;BME280;26392;42.696;23.350;2022-12-01T13:02:51;95480.06;;;3.71;100.00
40708;BME280;26392;42.696;23.350;2022-12-01T13:05:26;95476.13;;;3.74;100.00
40708;BME280;26392;42.696;23.350;2022-12-01T13:11:09;95484.22;;;3.54;100.00
40708;BME280;26392;42.696;23.350;2022-12-01T13:15:47;95482.75;;;3.51;100.00
40708;BME280;26392;42.696;23.350;2022-12-01T13:18:25;95473.84;;;3.38;100.00
40708;BME280;26392;42.696;23.350;2022-12-01T13:20:53;95479.44;;;3.43;100.00
40708;BME280;26392;42.696;23.350;2022-12-01T13:23:20;95488.97;;;3.52;100.00
40708;BME280;26392;42.696;23.350;2022-12-01T13:25:50;95479.25;;;3.64;100.00
40708;BME280;26392;42.696;23.350;2022-12-01T13:28:23;95486.91;;;3.67;100.00
40708;BME280;26392;42.696;23.350;2022-12-01T13:31:17;95485.44;;;3.71;100.00
40708;BME280;26392;42.696;23.350;2022-12-01T13:33:58;95481.94;;;3.64;100.00
40708;BME280;26392;42.696;23.350;2022-12-01T13:36:25;95491.47;;;3.60;100.00
40708;BME280;26392;42.696;23.350;2022-12-01T13:39:02;95479.66;;;3.68;100.00
40708;BME280;26392;42.696;23.350;2022-12-01T13:41:31;95490.44;;;3.81;100.00
40708;BME280;26392;42.696;23.350;2022-12-01T13:57:37;95486.06;;;3.47;100.00
40708;BME280;26392;42.696;23.350;2022-12-01T14:02:35;95490.81;;;3.38;100.00
40708;BME280;26392;42.696;23.350;2022-12-01T14:05:41;95482.94;;;3.50;100.00
40708;BME280;26392;42.696;23.350;2022-12-01T14:10:53;95482.13;;;3.23;100.00
40708;BME280;26392;42.696;23.350;2022-12-01T14:13:19;95479.41;;;3.09;100.00
40708;BME280;26392;42.696;23.350;2022-12-01T14:15:53;95479.81;;;3.06;100.00
40708;BME280;26392;42.696;23.350;2022-12-01T14:18:39;95476.53;;;3.11;100.00
40708;BME280;26392;42.696;23.350;2022-12-01T14:21:09;95480.63;;;3.07;100.00
40708;BME280;26392;42.696;23.350;2022-12-01T14:23:38;95491.63;;;3.12;100.00
40708;BME280;26392;42.696;23.350;2022-12-01T14:26:16;95493.50;;;3.25;100.00
40708;BME280;26392;42.696;23.350;2022-12-01T14:34:15;95487.84;;;2.93;100.00
40708;BME280;26392;42.696;23.350;2022-12-01T14:36:46;95493.84;;;2.88;100.00
40708;BME280;26392;42.696;23.350;2022-12-01T14:42:10;95492.59;;;2.78;100.00
40708;BME280;26392;42.696;23.350;2022-12-01T14:45:00;95494.63;;;2.76;100.00
40708;BME280;26392;42.696;23.350;2022-12-01T14:47:39;95492.94;;;2.61;100.00
40708;BME280;26392;42.696;23.350;2022-12-01T14:50:17;95506.97;;;2.50;100.00
40708;BME280;26392;42.696;23.350;2022-12-01T14:52:47;95498.00;;;2.36;100.00
40708;BME280;26392;42.696;23.350;2022-12-01T14:55:19;95508.91;;;2.28;100.00
40708;BME280;26392;42.696;23.350;2022-12-01T14:58:00;95516.06;;;2.14;100.00
40708;BME280;26392;42.696;23.350;2022-12-01T15:00:30;95518.22;;;2.32;100.00
40708;BME280;26392;42.696;23.350;2022-12-01T15:03:05;95511.78;;;2.27;100.00
40708;BME280;26392;42.696;23.350;2022-12-01T15:05:37;95514.13;;;2.36;100.00
40708;BME280;26392;42.696;23.350;2022-12-01T15:08:19;95508.81;;;2.50;100.00
40708;BME280;26392;42.696;23.350;2022-12-01T15:10:53;95515.69;;;2.59;100.00
40708;BME280;26392;42.696;23.350;2022-12-01T15:13:22;95518.13;;;2.54;100.00
40708;BME280;26392;42.696;23.350;2022-12-01T15:15:54;95517.97;;;2.62;100.00
40708;BME280;26392;42.696;23.350;2022-12-01T15:18:22;95519.19;;;2.59;100.00
40708;BME280;26392;42.696;23.350;2022-12-01T15:20:50;95520.06;;;2.66;100.00
40708;BME280;26392;42.696;23.350;2022-12-01T15:23:21;95520.69;;;2.68;100.00